Time;durP1;ratioP1;P1;durP2;ratioP2;P2;SDS_P1;SDS_P2;PMS_P1;PMS_P2;Temp;Humidity;BMP_temperature;BMP_pressure;BME280_temperature;BME280_humidity;BME280_pressure;Samples;Min_cycle;Max_cycle;Signal;HPM_P1;HPM_P2
2022/02/27 00:03:28;;;;;;;0.20;0.10;;;8.80;99.90;;;;;;25441085;23;20232;-73
2022/02/27 00:13:32;;;;;;;0.20;0.10;;;8.50;99.90;;;;;;25441252;23;20240;-63
2022/02/27 00:23:37;;;;;;;0.20;0.10;;;8.40;99.90;;;;;;25440839;23;20168;-63
2022/02/27 00:33:41;;;;;;;0.20;0.00;;;8.40;99.90;;;;;;25446368;23;20207;-70
2022/02/27 00:43:46;;;;;;;0.20;0.10;;;8.10;99.90;;;;;;25447976;23;20156;-70
2022/02/27 00:53:50;;;;;;;0.20;0.10;;;7.80;99.90;;;;;;25448012;23;20203;-63
2022/02/27 01:03:55;;;;;;;0.20;0.00;;;7.50;99.90;;;;;;25450659;23;20175;-64
2022/02/27 01:14:03;;;;;;;0.20;0.10;;;7.60;99.90;;;;;;25450530;23;20227;-64
2022/02/27 01:24:09;;;;;;;0.20;0.07;;;7.60;99.90;;;;;;25449523;23;20176;-71
2022/02/27 01:34:13;;;;;;;0.20;0.00;;;7.20;99.90;;;;;;25449642;23;20214;-73
2022/02/27 01:44:18;;;;;;;0.20;0.10;;;7.50;99.90;;;;;;25449866;23;20163;-72
2022/02/27 01:54:22;;;;;;;0.20;0.00;;;7.80;99.90;;;;;;25424164;23;20235;-75
2022/02/27 02:04:27;;;;;;;0.20;0.10;;;7.80;99.90;;;;;;25448664;23;20453;-66
2022/02/27 02:14:31;;;;;;;0.20;0.10;;;7.50;99.90;;;;;;25448579;23;20183;-65
2022/02/27 02:24:36;;;;;;;0.20;0.10;;;8.10;99.90;;;;;;25449636;23;20172;-66
2022/02/27 02:34:40;;;;;;;0.20;0.10;;;8.20;99.90;;;;;;25448529;23;20214;-66
2022/02/27 02:44:45;;;;;;;0.20;0.10;;;8.20;99.90;;;;;;25422885;23;20182;-66
2022/02/27 02:54:49;;;;;;;0.20;0.10;;;8.20;99.90;;;;;;25448239;23;20200;-66
2022/02/27 03:04:55;;;;;;;0.20;0.03;;;8.10;99.90;;;;;;25448368;23;20375;-66
2022/02/27 03:14:58;;;;;;;0.20;0.00;;;7.50;99.90;;;;;;25421659;23;20221;-66
2022/02/27 03:25:04;;;;;;;0.20;0.10;;;7.60;99.90;;;;;;25447063;23;20168;-66
2022/02/27 03:35:08;;;;;;;0.20;0.00;;;7.20;99.90;;;;;;25420491;23;20210;-65
2022/02/27 03:45:15;;;;;;;0.20;0.00;;;7.00;99.90;;;;;;25446687;23;20191;-65
2022/02/27 03:55:19;;;;;;;0.20;0.10;;;6.70;99.90;;;;;;25435329;23;20156;-65
2022/02/27 04:05:25;;;;;;;0.20;0.00;;;6.60;99.90;;;;;;25449638;23;20167;-66
2022/02/27 04:15:29;;;;;;;0.20;0.10;;;6.20;99.90;;;;;;25428859;23;20172;-71
2022/02/27 04:25:34;;;;;;;0.20;0.10;;;6.40;99.90;;;;;;25453506;23;20171;-71
2022/02/27 04:35:38;;;;;;;0.20;0.00;;;6.30;99.90;;;;;;25453302;23;20210;-71
2022/02/27 04:45:44;;;;;;;0.20;0.00;;;6.40;99.90;;;;;;25427621;23;20168;-71
2022/02/27 04:55:47;;;;;;;0.20;0.10;;;5.70;99.90;;;;;;25451878;23;20280;-70
2022/02/27 05:05:52;;;;;;;0.20;0.10;;;5.40;99.90;;;;;;25451463;23;20190;-70
2022/02/27 05:15:56;;;;;;;0.20;0.10;;;5.40;99.90;;;;;;25450694;23;20183;-71
2022/02/27 05:26:01;;;;;;;0.20;0.10;;;5.60;99.90;;;;;;25425972;23;20226;-71
2022/02/27 05:36:06;;;;;;;0.20;0.10;;;5.80;99.90;;;;;;25424698;23;20210;-69
2022/02/27 05:46:11;;;;;;;0.20;0.00;;;6.00;99.90;;;;;;25451156;23;20192;-70
2022/02/27 05:56:15;;;;;;;0.20;0.10;;;6.20;99.90;;;;;;25449947;23;20167;-70
2022/02/27 06:06:20;;;;;;;0.20;0.10;;;6.10;99.90;;;;;;25448991;23;20206;-70
2022/02/27 06:16:24;;;;;;;0.20;0.00;;;6.20;99.90;;;;;;25449968;23;20179;-70
2022/02/27 06:26:30;;;;;;;0.20;0.10;;;6.20;99.90;;;;;;25423097;23;20202;-63
2022/02/27 06:36:33;;;;;;;0.20;0.10;;;6.30;99.90;;;;;;25422150;23;20203;-65
2022/02/27 06:46:41;;;;;;;0.20;0.10;;;6.50;99.90;;;;;;25421796;23;20191;-64
2022/02/27 06:56:45;;;;;;;0.20;0.10;;;6.80;99.90;;;;;;25447212;23;20179;-65
2022/02/27 07:06:51;;;;;;;0.20;0.00;;;7.00;99.90;;;;;;25447895;23;20191;-66
2022/02/27 07:16:58;;;;;;;0.20;0.10;;;7.00;99.90;;;;;;25448131;23;20195;-71
2022/02/27 07:27:10;;;;;;;0.20;0.10;;;7.50;99.90;;;;;;25448916;23;20234;-74
2022/02/27 07:37:14;;;;;;;0.20;0.10;;;7.90;99.90;;;;;;25444691;23;20219;-63
2022/02/27 07:47:19;;;;;;;0.20;0.10;;;8.20;99.90;;;;;;25406982;23;20192;-65
2022/02/27 07:57:23;;;;;;;0.20;0.10;;;8.70;99.90;;;;;;25416390;23;20174;-70
2022/02/27 08:07:28;;;;;;;0.20;0.00;;;9.40;99.90;;;;;;25443466;23;20199;-68
2022/02/27 08:17:31;;;;;;;0.20;0.00;;;10.00;99.90;;;;;;25418076;23;20240;-68
2022/02/27 08:27:36;;;;;;;0.20;0.10;;;10.90;99.90;;;;;;25444179;23;20196;-65
2022/02/27 08:37:40;;;;;;;0.20;0.10;;;11.40;99.90;;;;;;25443513;23;20206;-66
2022/02/27 08:47:45;;;;;;;0.20;0.10;;;11.70;99.90;;;;;;25442398;23;20191;-66
2022/02/27 08:57:49;;;;;;;0.20;0.10;;;11.90;99.90;;;;;;25448681;23;20167;-66
2022/02/27 09:07:54;;;;;;;0.20;0.10;;;12.00;99.90;;;;;;25447003;23;20198;-68
2022/02/27 09:17:57;;;;;;;0.20;0.10;;;12.20;99.90;;;;;;25447827;23;20164;-69
2022/02/27 09:28:03;;;;;;;0.20;0.10;;;12.40;99.90;;;;;;25447741;23;20593;-65
2022/02/27 09:38:07;;;;;;;0.20;0.10;;;12.50;99.90;;;;;;25447174;23;20215;-67
2022/02/27 09:48:12;;;;;;;0.20;0.10;;;12.80;99.90;;;;;;25445520;23;20202;-78
2022/02/27 09:58:16;;;;;;;0.20;0.10;;;12.90;99.90;;;;;;25447667;23;20167;-74
2022/02/27 10:08:21;;;;;;;0.20;0.10;;;13.10;99.90;;;;;;25441769;23;20400;-75
2022/02/27 10:18:25;;;;;;;0.20;0.10;;;13.50;99.90;;;;;;25418131;23;20172;-77
2022/02/27 10:28:30;;;;;;;0.20;0.10;;;14.10;99.90;;;;;;25444416;23;20202;-81
2022/02/27 11:52:41;;;;;;;0.20;0.10;;;17.10;99.90;;;;;;25431755;23;20223;-75
2022/02/27 12:02:47;;;;;;;0.20;0.10;;;18.00;99.90;;;;;;25439515;23;20163;-74
2022/02/27 12:12:55;;;;;;;0.20;0.10;;;18.30;99.90;;;;;;25437584;23;20191;-75
2022/02/27 12:22:59;;;;;;;0.20;0.10;;;18.10;99.90;;;;;;25410031;23;20168;-73
2022/02/27 12:33:08;;;;;;;0.20;0.10;;;19.20;99.90;;;;;;25435176;23;20199;-75
2022/02/27 12:43:13;;;;;;;0.20;0.10;;;18.90;99.90;;;;;;25447574;23;20167;-77
2022/02/27 12:53:19;;;;;;;0.20;0.10;;;19.60;99.90;;;;;;25448292;23;20203;-73
2022/02/27 13:03:23;;;;;;;0.20;0.10;;;18.30;99.90;;;;;;25422287;23;20176;-66
2022/02/27 13:13:38;;;;;;;0.20;0.00;;;18.90;99.90;;;;;;25449116;23;20192;-67
2022/02/27 13:23:42;;;;;;;0.20;0.10;;;19.80;99.90;;;;;;25447935;23;20167;-66
2022/02/27 13:33:48;;;;;;;0.20;0.10;;;19.50;99.90;;;;;;25445911;23;20284;-65
2022/02/27 13:43:52;;;;;;;0.20;0.00;;;20.70;99.90;;;;;;25420868;23;20172;-71
2022/02/27 13:54:19;;;;;;;0.20;0.00;;;21.80;99.90;;;;;;25424379;23;20210;-72
2022/02/27 14:04:23;;;;;;;0.20;0.00;;;21.40;99.90;;;;;;25449949;23;20156;-73
2022/02/27 14:14:29;;;;;;;0.20;0.10;;;21.70;99.90;;;;;;25421820;23;20203;-72
2022/02/27 14:24:44;;;;;;;0.20;0.10;;;21.90;99.90;;;;;;25446600;23;20167;-67
2022/02/27 14:34:49;;;;;;;0.20;0.00;;;22.20;99.90;;;;;;25447074;23;20203;-66
2022/02/27 14:44:53;;;;;;;0.20;0.00;;;22.10;99.90;;;;;;25446734;23;20168;-66
2022/02/27 14:55:04;;;;;;;0.20;0.00;;;22.10;99.90;;;;;;25443295;23;20226;-68
2022/02/27 15:05:10;;;;;;;0.20;0.00;;;21.90;99.90;;;;;;25444766;23;20167;-67
2022/02/27 15:15:16;;;;;;;0.20;0.00;;;22.50;99.90;;;;;;25444134;23;20187;-66
2022/02/27 15:25:19;;;;;;;0.20;0.03;;;21.20;99.90;;;;;;25444427;23;20178;-66
2022/02/27 15:35:24;;;;;;;0.20;0.00;;;22.20;99.90;;;;;;25418369;23;20214;-66
2022/02/27 15:45:28;;;;;;;0.20;0.00;;;21.80;99.90;;;;;;25443098;23;20183;-65
2022/02/27 15:55:33;;;;;;;0.20;0.10;;;20.90;99.90;;;;;;25416712;23;20221;-66
2022/02/27 16:05:37;;;;;;;0.20;0.10;;;20.80;99.90;;;;;;25455015;23;20159;-66
2022/02/27 16:15:42;;;;;;;0.20;0.03;;;19.50;99.90;;;;;;25455353;23;20183;-65
2022/02/27 16:25:47;;;;;;;3.43;3.23;;;18.90;99.90;;;;;;25454107;23;20170;-71
2022/02/27 16:35:54;;;;;;;0.20;0.10;;;18.40;99.90;;;;;;25454042;23;20210;-73
2022/02/27 16:45:58;;;;;;;0.20;0.00;;;16.90;99.90;;;;;;25454173;23;20176;-73
2022/02/27 16:56:04;;;;;;;0.20;0.10;;;16.40;99.90;;;;;;25427110;23;20219;-72
2022/02/27 17:06:08;;;;;;;0.20;0.00;;;15.50;99.90;;;;;;25429092;23;20186;-74
2022/02/27 17:16:15;;;;;;;0.20;0.00;;;15.10;99.90;;;;;;25421056;23;20188;-75
2022/02/27 17:26:19;;;;;;;0.20;0.10;;;14.60;99.90;;;;;;25444878;23;20187;-64
2022/02/27 17:36:24;;;;;;;0.20;0.00;;;14.50;99.90;;;;;;25446645;23;20199;-63
2022/02/27 17:46:28;;;;;;;0.20;0.00;;;14.20;99.90;;;;;;25443441;23;20167;-69
2022/02/27 17:56:33;;;;;;;0.20;0.10;;;13.80;99.90;;;;;;25325071;23;20274;-65
2022/02/27 18:06:37;;;;;;;0.20;0.00;;;13.70;99.90;;;;;;25321518;23;20169;-65
2022/02/27 18:16:43;;;;;;;0.20;0.00;;;13.50;99.90;;;;;;25321155;23;20192;-61
2022/02/27 18:26:48;;;;;;;0.20;0.10;;;13.20;99.90;;;;;;25322325;23;20171;-64
2022/02/27 18:36:53;;;;;;;0.20;0.07;;;12.70;99.90;;;;;;25324041;23;20204;-65
2022/02/27 18:46:56;;;;;;;0.20;0.10;;;11.90;99.90;;;;;;25305154;23;20210;-65
2022/02/27 18:57:02;;;;;;;0.20;0.10;;;11.30;99.90;;;;;;25419247;23;20290;-65
2022/02/27 19:07:06;;;;;;;0.20;0.10;;;11.10;99.90;;;;;;25444335;23;20171;-65
2022/02/27 19:17:11;;;;;;;0.20;0.10;;;10.60;99.90;;;;;;25445125;23;20188;-73
2022/02/27 19:27:15;;;;;;;0.20;0.10;;;10.60;99.90;;;;;;25441856;23;20167;-73
2022/02/27 19:37:21;;;;;;;0.20;0.10;;;10.30;99.90;;;;;;25417426;23;20221;-74
2022/02/27 19:47:30;;;;;;;0.20;0.03;;;10.20;99.90;;;;;;25441980;23;20191;-74
2022/02/27 19:57:36;;;;;;;0.20;0.10;;;10.10;99.90;;;;;;25442603;23;20191;-73
2022/02/27 20:07:40;;;;;;;0.20;0.10;;;10.10;99.90;;;;;;25417280;23;20179;-72
2022/02/27 20:17:45;;;;;;;0.20;0.00;;;9.90;99.90;;;;;;25416562;23;20207;-73
2022/02/27 20:27:49;;;;;;;0.20;0.00;;;10.00;99.90;;;;;;25443560;23;20160;-74
2022/02/27 20:37:56;;;;;;;0.20;0.10;;;10.30;99.90;;;;;;25442772;23;20199;-74
2022/02/27 20:48:00;;;;;;;0.20;0.10;;;10.50;99.90;;;;;;25445157;23;20195;-72
2022/02/27 20:58:09;;;;;;;0.20;0.10;;;10.70;99.90;;;;;;25450148;23;20622;-74
2022/02/27 21:08:13;;;;;;;0.30;0.30;;;10.80;99.90;;;;;;25451810;23;20171;-73
2022/02/27 21:18:18;;;;;;;0.20;0.10;;;11.00;99.90;;;;;;25425647;23;20171;-72
2022/02/27 21:28:22;;;;;;;0.20;0.10;;;11.00;99.90;;;;;;25451243;23;20168;-75
2022/02/27 21:38:28;;;;;;;0.20;0.10;;;11.10;99.90;;;;;;25451515;23;20285;-73
2022/02/27 21:48:32;;;;;;;0.20;0.10;;;11.20;99.90;;;;;;25425512;23;20195;-75
2022/02/27 21:58:37;;;;;;;0.20;0.10;;;11.00;99.90;;;;;;25448048;23;20207;-64
2022/02/27 22:08:41;;;;;;;0.20;0.10;;;11.10;99.90;;;;;;25423679;23;20195;-64
2022/02/27 22:18:46;;;;;;;0.20;0.10;;;11.20;99.90;;;;;;25423132;23;20176;-72
2022/02/27 22:28:50;;;;;;;0.20;0.10;;;11.20;99.90;;;;;;25448422;23;20195;-72
2022/02/27 22:38:56;;;;;;;0.20;0.10;;;11.10;99.90;;;;;;25422059;23;20187;-65
2022/02/27 22:49:00;;;;;;;0.20;0.10;;;10.80;99.90;;;;;;25446749;23;20265;-64
2022/02/27 22:59:06;;;;;;;0.20;0.20;;;10.50;99.90;;;;;;25445847;23;20201;-68
2022/02/27 23:09:09;;;;;;;0.20;0.10;;;10.40;99.90;;;;;;25444692;23;20202;-69
2022/02/27 23:19:15;;;;;;;0.20;0.10;;;10.50;99.90;;;;;;25448049;23;20190;-69
2022/02/27 23:29:18;;;;;;;0.20;0.10;;;10.60;99.90;;;;;;25447917;23;20187;-69
2022/02/27 23:39:24;;;;;;;0.20;0.10;;;10.60;99.90;;;;;;25421942;23;20186;-69
2022/02/27 23:49:28;;;;;;;0.20;0.10;;;10.70;99.90;;;;;;25446755;23;20218;-69
2022/02/27 23:59:33;;;;;;;0.20;0.10;;;11.00;99.90;;;;;;25421703;23;20632;-69
